Современная техника

Полезные ссылки:
Метеоцентр.Азия - наш сайт с высокодетализированными прогнозами погоды по пунктам России и мира
Облегчённая версия Метеоклуба (для смартфонов)

Современная техника

Сейчас в Метеоклубе:
Участников - 7 [ Blitzz, Tintagel, vol305, Morozov_S, alexkspb, Konstantin, SINOBI ]
Максимальное одновременное количество посетителей: 9 [14 Апр 2021 17:48]
Гостей - 0 / Участников - 9

 - Начало - Ответить - Статистика - Регистрация - Поиск -
МЕТЕОКЛУБ : независимое сообщество любителей метеорологии (Европа и Азия) : ФОРУМ О ПОГОДЕ И ПРИРОДЕ / Техника / Современная техника
<< . 1 . 2 . 3 . >>
Автор Сообщение
CorvusCorax
Автор сайта
Письмо
Владимир (г. Байконур)
# Дата: 8 Июл 2020 14:26


Крупнейший в РФ троллейбусный завод «Тролза» под Саратовом не вернется к работе, предприятие продает имущество и погашает долги.

ПК "Транспортные системы" начала серийный выпуск троллейбусов на площадях "Тролзы". Речь идет о выпуске полностью низкопольных троллейбусов "Адмирал" с увеличенным автономным ходом

https://tass.ru/ekonomika/7807671

CorvusCorax
Автор сайта
Письмо
Владимир (г. Байконур)
# Дата: 30 Июл 2020 12:56


Путин дал старт новому транспортному проекту. Русская альтернатива Суэцкому каналу

https://zen.yandex.ru/media/dvinsy/putin-dal-start -novomu-transportnomu-proektu-russkaia-alternativa -sueckomu-kanalu-5f211325b9acaa2e1c85d9c3

CorvusCorax
Автор сайта
Письмо
Владимир (г. Байконур)
# Дата: 30 Июл 2020 12:58


“Яндекс” самовольно установил пользователям неудаляемый “Телемост”

Главное правило интернетов — всегда проверяй, не забыл ли удалить подозрительную галочку при установке программы и ради всего святого, хотя бы по диагонали читай пользовательское соглашение. “Яндекс” оригинально решил напомнить об этом пользователям “Диска” и принудительно инсталлировал на их компьютеры фирменный сервис видеоконференций “Телемост”, который еще и удалить теперь нельзя.

https://yandex.ru/turbo/s/popmech.ru/technologies/ 603873-yandeks-samovolno-ustanovil-polzovatelyam-n eudalyaemyy-telemost/

CorvusCorax
Автор сайта
Письмо
Владимир (г. Байконур)
# Дата: 30 Июл 2020 13:10


Россия отказалась от противоракетного радара "Балхаш" в Казахстане
За последние годы на территории самой РФ построены сразу четыре современные станции.

https://life.ru/p/1336261

Morozov_S
Участник
Письмо
Нижний Новгород, За нашу Советскую Родину!
# Дата: 31 Июл 2020 09:27


CorvusCorax
Путин дал старт новому транспортному проекту.
А не проще ли ж.д. транспортом по этому пути грузы доставлять? И быстрее выйдет. Только если какие негабаритные грузы.

CorvusCorax
Автор сайта
Письмо
Владимир (г. Байконур)
# Дата: 31 Июл 2020 11:27


Morozov_S

Может и проще.
Но перевозка 1 т груза речным и морским транспортом стоит намного дешевле, чем жд и авто. Прямых тарифов не нашёл, но пишут что "очень дёшево".

Тогда как условный груз от Астрахани до Москвы 10 т 30 м3 перевезут за:

ЖД ТРАНСПОРТОМ ОТ: 150 000.00 р 2 дня
АВТОТРАНСПОРТОМ ОТ: 120 000.00 р 4-5 дней
АВИА ТРАНСПОРТОМ ОТ: 1 220 650.00 р 24 ч

https://unicomcargo.ru/tarify/price-gd-perevozki

nym
Участник
Письмо
Уфа
# Дата: 31 Июл 2020 12:05


От Астрахани до Москвы фура доедет максимум за 2 дня, даже работая по РТО, без РТО за 1,5 дня, откуда там 4-5 дней?

Sunspot
Участник
Письмо
Ульяновск
# Дата: 31 Июл 2020 13:46


перевозка 1 т груза речным и морским транспортом стоит намного дешевле, чем жд и авто. Прямых тарифов не нашёл, но пишут что "очень дёшево".
CorvusCorax
Волжский речной грузовой транспорт всегда был важной составляющей России при любых властях. При царе - возили товары, зерно, овощи, нефть, грузы. При СССР - ту же нефть(нефтеналивные танкеры), зерно(сухогрузы), контейнеры и прочее. А какой был пассажирский транспорт? Во все даже маленькие прибрежные сёла ходили ОМ-ики, Кометы и Ракеты. Сейчас всё умерло почти.
Речным транспортом выгодно перевозить крупнотонажные и негабаритные грузы. То, что на авто не перевезёшь(либо нужно очень много фур), а жд - дорого. Нефтеналивные баржи, зерновозы и контейнеровозы вполне конкурируют с этими видами транспорта. Сколько нужно вагонов для перевозки допустим 1000 тонн(средняя грузоподъёмность баржи). Да ещё направление ж\д центр-юг всегда сильно перегружено. Другое дело, что весь этот флот уже довольно старый, и нужно строить новые суда...

CorvusCorax
Автор сайта
Письмо
Владимир (г. Байконур)
# Дата: 31 Июл 2020 13:53


nym

Ну это уже детали. Там автоматический калькулятор, выставляет условно-ориентировочные сроки.

Sunspot

Надеюсь, что этот проект даст толчок возрождению российского речного флота вообще и волжского в частности.

CorvusCorax
Автор сайта
Письмо
Владимир (г. Байконур)
# Дата: 31 Июл 2020 13:55


Куча публикаций разных лет о речном флоте (его прошлом и настоящем) в самарском блоге:

https://yandex.ru/search/?text=%D1%80%D0%B5%D1%87% D0%BD%D0%BE%D0%B9%20%D1%84%D0%BB%D0%BE%D1%82%20sit e%3Agregorkon.wordpress.com&lr=213&clid=2237730

Morozov_S
Участник
Письмо
Нижний Новгород, За нашу Советскую Родину!
# Дата: 31 Июл 2020 20:18


CorvusCorax
Надеюсь, что этот проект даст толчок возрождению российского речного флота вообще и волжского в частности.
Я тоже надеюсь. Сормовский завод регулярно спускает на воду новые грузовые суда, даже пассажирский теплоход построили впервые более чем за полвека. Опять активно начинают развивать скоростное движение на новых СПК. Причем на последние у пассажиров просто колоссальный спрос. Так что перспективы вполне хорошие.

CorvusCorax
Автор сайта
Письмо
Владимир (г. Байконур)
# Дата: 11 Авг 2020 07:19


Российская авиабомба «Дрель»: почему её так испугались на Западе

https://russian7.ru/post/rossiyskaya-aviabomba-dre l-pochemu/

Twister
Участник
Письмо
Архангельск
# Дата: 12 Авг 2020 11:16


Российская авиабомба «Дрель»: почему её так испугались на Западе
Заголовок в стиле "кликбейт" .

CorvusCorax
Автор сайта
Письмо
Владимир (г. Байконур)
# Дата: 29 Авг 2020 15:20


В России впервые испытан макет-демонстратор активной фазированной антенной решетки на основе радиофотоники, так называемый РОФАР. Радиолокационная станция с такой антенной «увидит» цели на дальности, в несколько раз превышающей возможности существующих радаров. Радиофотоника способна свести на нет все преимущества так называемых стелс-технологий малой радиолокационной заметности, на которую сделали ставку в США.

https://mk-ru.turbopages.org/s/mk.ru/politics/2020 /08/27/avtory-fotonnogo-radara-vynesli-smertnyy-pr igovor-stelssamoletam-ssha.html

CorvusCorax
Автор сайта
Письмо
Владимир (г. Байконур)
# Дата: 30 Авг 2020 16:51


Американский журнал Military Watch написал об одной из новинок форума “Армия-2020” – перспективной подлодке “Цефалопод”. По мнению издания, подводная беспилотная система может стать настоящей убийцей субмарин и в некотором смысле, она даже более опасная, чем “Посейдон”.

Дрон будет вооружен ядерными торпедами, способными уничтожить целую авианосную группу. Скорость аппарата будет колоссальной – более 200 км/час, поэтому возникает естественный вопрос: а как будет решаться вопрос с шумностью? Пока это остается загадкой. На данный момент незаметность и малошумность подлодки – это почти самое главное.

Для охоты на субмарины противника у “Цефалопода” предусмотрены небольшие торпеды длиной чуть более трех метров. Предполагается, что подводный дрон будет уходить в самостоятельное плавание и самостоятельно определять мишени, а затем уничтожать их. При этом будет трудно выяснить, кто это сделал – настоящее оружие гибридной войны.

По мнению западных военных экспертов, козырем “Цефалопода” будет не маневренность, а как раз скрытность и большой радиус действия. Вряд ли она будет разгоняться до высоких скоростей, так как в этом случае ее могут засечь гидролокаторы. Скорее всего, дрон будет совершать резкий рывок в самом конце, перед тем как нанести смертельный удар.

Впрочем, когда “Цефалопод” примут на вооружение, непонятно. Пока ближайшим проектом является “Посейдон”, который уже называют оружием Судного дня.


https://ruspravda-info.turbopages.org/h/ruspravda. info/TSefalopod-V-SSHA-nazvali-rossiyskoe-oruzhie- strashnee-Poseydona-40034.html

CorvusCorax
Автор сайта
Письмо
Владимир (г. Байконур)
# Дата: 10 Окт 2020 18:20


Россияне создали гаджет к мобильному телефону, позволяющий звонить при отсутствии сотовой связи

https://zoom.cnews.ru/news/item/516635

Sunspot
Участник
Письмо
Ульяновск
# Дата: 24 Ноя 2020 08:35


Российско-немецкое предприятие "Камаз" выпустит капотный грузовик - URL

А российский завод "Урал", вероятно в пику "Камаз"-у, впервые выпустит бескапотный грузовик:) -URL

CorvusCorax
Автор сайта
Письмо
Владимир (г. Байконур)
# Дата: 9 Янв 2021 10:08 - Поправил: CorvusCorax


Воздушно-космические силы России в 2021 году перевооружат первый полк на зенитно-ракетные комплексы С-350 «Витязь», а также получат два новых полковых комплекта систем ПВО С-400 и комплексов. Об этом 9 января сообщили в пресс-службе Минобороны РФ.

«В 2021 году в ВКС планируется поступить на вооружение два полковых комплекта зенитной ракетной системы С-400 «Триумф» и 18 зенитных ракетных пушечных комплексов ЗРПК «Панцирь-С». Помимо этого, планируется перевооружить первый зенитный ракетный полк на новейший зенитный ракетный комплекс С-350 «Витязь», — говорится в сообщении.

Комплексы С-350 предназначены для защиты важнейших объектов и группировок войск от ударов современных и перспективных средств воздушного нападения. С-350 разработаны концерном «Алмаз-Антей». Радиус их поражения — 60 км.

Ранее в Минобороны РФ отмечали, что использование этих комплексов повысит эффективность отражения массированных ударов крылатых ракет в четыре раза.

6 марта военный эксперт Виктор Мураховский назвал «Витязей» убийцами американских ракет Tomahawk и европейских Storm Shadow. По его словам, объединив в единую сеть комплексы «Прометей», «Витязь», «Панцирь» и другие средства ПВО, Россия получит фактически непробиваемый «зонтик».


https://news.mail.ru/politics/44825720/

Sunspot
Участник
Письмо
Ульяновск
# Дата: 13 Янв 2021 10:13


Вышел новый каталог "100 лучших товаров России" за 2020 год.
В списке лучших промышленных товаров - бензин, дизельное топливо, бумага, продукция деревообработки, битум, газ, продукция металлообработки, химия, в том числе органическая, полимеры, масла, арматура для транспортировки нефте и газодобычи и прочие традиционные товары - URL
Остальные категории здесь - URL

CorvusCorax
Автор сайта
Письмо
Владимир (г. Байконур)
# Дата: 27 Мар 2021 17:35


КАИР, 27 марта. /ТАСС/. Блокировка Суэцкого канала из-за севшего на мель контейнеровоза привела к тому, что в настоящий момент уже 276 судов стоят в очереди на проход. Об этом сообщило в субботу судовое агентство Египта Leth Agencies.

«127 судов ждут своей очереди на якорной стоянке в порту Суэца (юг), 42 пришвартованы в районе Исмаилии у Большого горького озера, которое расположено между северной и южной частями Суэцкого канала, 107 стоят на якорной стоянке в Порт-Саиде (север)», — сообщило агентство.

В пятницу вечером была предпринята первая попытка маневровой буксировки, контейнеровоз не удалось сдвинуть с места. В полдень субботы, после того как были завершены все дноуглубительные работы под носом судна, с помощью девяти буксиров была предпринята вторая попытка стащить с мели контейнеровоз, она также оказалась неудачной. При этом был задействован земснаряд, с помощью которого из-под носа судна было извлечено более 17 тыс. тонн песка.

В ближайший час управление канала созывает пресс-конференцию, чтобы рассказать журналистам о ходе и подробностях операции.

Контейнеровоз Ever Given, который принадлежит японской компании Shohei Kisen и ходит под панамским флагом, во вторник перегородил одномагистральную южную часть Суэцкого канала из-за сильного ветра и песчаной бури, изменив курс и упершись носом и кормой в противоположные берега русла.

К операции по разблокировке привлечены сотрудники компании SMIT, специализирующейся на морских спасательных работах и входящей в концерн Boskalis. Кроме того, в ней задействована и японская компания Nippon Salvage. Свою помощь предложили США и Турция. Эксперты уже назвали сложившуюся ситуацию самой тяжелой за все время существования канала.


https://news.mail.ru/incident/45721820/

CorvusCorax
Автор сайта
Письмо
Владимир (г. Байконур)
# Дата: 27 Мар 2021 17:45 - Поправил: CorvusCorax


Погода 23 марта 2021 г. в ближайшем аэропорту Исмаилия

ARCHIVED METAR OF: 20210323 // FROM: 0 TO: 23 UTC
AIRPORTS REQUESTED: HEIS

HEIS 230500Z 16020KT 2000 SA NSC 25/15 Q1001
HEIS 230600Z 16007KT 2000 DU SCT025 26/14 Q1001
HEIS 230700Z 15008KT 2000 DY SCT025 28/13 Q1001
HEIS 230800Z 17007KT 2000 DY SCT025 30/12 Q1001
HEIS 230900Z 18008KT 2000 DY BKN025 31/12 Q1000
HEIS 231000Z 18012KT 2000 SA BKN025 32/12 Q1000
HEIS 231100Z 29016KT 2000 SA BKN025 32/11 Q1001
HEIS 231200Z 28020KT 2000 SA BKN025 33/10 Q1001
HEIS 231300Z 30022KT 2000 SA BKN025 28/13 Q1004
HEIS 231400Z 29022KT 2000 SA BKN025 24/13 Q1005
HEIS 231500Z 30022KT 6000 SCT025 24/13 Q1005
HEIS 231600Z 29016KT 6000 SCT025 22/12 Q1006

http://aviationwxchartsarchive.com/product/metar

Ветер Ю с переходом на З 4 м/с с усилением до 11 м/с, схема днём 33/10, песок, видимость 2000 м.

HECA 230630Z 17008KT 2000 HZ NSC 30/09 Q1001 NOSIG
HECA 230700Z 20012KT 2000 SA NSC 31/07 Q1002 NOSIG
HECA 230730Z 18011KT 2000 SA NSC 32/06 Q1001 NOSIG
HECA 238000Z 21020KT 2000 SA NSC 31/05 Q1002 NOSIG
HECA 238030Z 19019KT 2000 SA NSC 32/06 Q1001 NOSIG
HECA 230900Z 19020KT 2000 SA NSC 33/05 Q1002 NOSIG

Видимо, ХФ проходил. В Каире в первой половине дня был Ю ветер 10 м/с, вид. 2000 м, песок, схема 33/05.

HECA 230930Z 29017KT 2000 SA NSC 26/11 Q1003 NOSIG
HECA 231000Z 28018KT 3000 SA NSC 27/11 Q1003 NOSIG
HECA 231030Z 28015KT 3000 SA NSC 27/12 Q1003 NOSIG
HECA 231100Z 29016KT 3000 SA NSC 27/12 Q1004 NOSIG
HECA 231130Z 28013KT 3000 SA NSC 26/12 Q1005 NOSIG
HECA 231200Z 28018KT 3000 SA NSC 25/12 Q1005 NOSIG
HECA 231230Z 29014KT 3000 SA NSC 24/11 Q1005 NOSIG
HECA 231300Z 28017KT 3000 SA NSC 24/11 Q1006
HECA 231330Z 28018KT 3000 SA NSC 24/10 Q1006 NOSIG
HECA 231400Z 26013KT 3000 SA NSC 23/10 Q1006 NOSIG
HECA 231430Z 27011KT 3000 SA NSC 23/11 Q1007 NOSIG
HECA 231500Z 29015KT 4000 SA NSC 22/11 Q1007 TEMPO 3000
HECA 231530Z 27016KT 4000 SA NSC 22/11 Q1008 TEMPO 3000
HECA 231600Z 29012KT 6000 BKN025 21/11 Q1008

Потом ветер перешёл на З 9 м/с, вид. 3000 м, песок, схема съехала до 24/11. В общем, ничего сногсшибательного. КД нет, шквалов нет, какого-то особенно сильного ветра нет.

CorvusCorax
Автор сайта
Письмо
Владимир (г. Байконур)
# Дата: 27 Мар 2021 19:00


«В 40 километрах от МКАДа произошел свой Суэцкий канал», — пишет Telegram-канал Baza. В деревне Алачково фура с тоннами лука перегородила центральную улицу, отчего страдают местные жители. И находится там уже третий день.

«Одни просто не могут нормально добраться до дома, а другие, чьи машины были на стоянке до прибытия фуры, внезапно стали пешеходами. На место уже пригоняли технику, но безрезультатно — фура еще больше застряла в снегу и накренилась», — говорится в заметке.

«Водитель в фуре и живет, из Казахстана, позавчера трактор и эвакуатор грузовой пытались вытащить, вчера ДПС с “Кировцем” и краном пытались. 112 помочь не может, в администрацию буду сейчас пытаться дозвониться. Председатель никаких действий не предпринимает. Народу много заблокировано», — рассказал местный житель редакции «Чехов-Вид».


https://auto.mail.ru/article/80889-svoi_sueckii_ka nal_pod_moskvoi_tretii_den_buksuet_fura_s_tonnami_ luka/



Sunspot
Участник
Письмо
Ульяновск
# Дата: 27 Мар 2021 19:19


В 40 километрах от МКАДа произошел свой Суэцкий канал», — пишет Telegram-канал Baza. В деревне Алачково фура с тоннами лука перегородила центральную улицу, отчего страдают местные жители. И находится там уже третий день.
CorvusCorax
Ничего удивительного.
Только это наверное не техника виновата, а наши дороги. Ну заехал случайно не туда, а фуре развернуться проблематично и без слякоти.:)
У меня тут недавно случилась точно такая же история. Мужик на фуре из другого города заехал на узкую дорожку, и застрял. Во льду. Резина-то лысая. Ну и перегородил проезд, пробка образовалась. Хорошо поблизости ЖКХ-шный Беларусь работал. Смешно было наблюдать, как трактор тянул этот гружёный трейлер, со скоростью черепахи. Аж подпрыгивал.:)
Но вытянул.

CorvusCorax
Автор сайта
Письмо
Владимир (г. Байконур)
# Дата: 28 Мар 2021 10:07


Космонавт Роскосмоса Сергей Кудь-Сверчков, который в настоящее время работает на борту Международной космической станции, сфотографировал контейнеровоз Ever Given, который сел на мель и перекрыл движение в южной части Суэцкого канала. Снимки он опубликовал на своих официальных страницах в социальных сетях.

Как отметил Кудь-Сверчков, на кадрах видно, как «буксиры пытаются сдвинуть гиганта с места».

Контейнеровоз Ever Given — который принадлежит японской компании Shoei Kisen и находится в управлении тайваньской Evergreen Marine Corporation — 23 марта 2021 года сел на мель на 151-м километре Суэцкого канала по пути из Китая в Роттердам. Из-за этого движение по торговому пути оказалось заблокировано, уже более 320 судов ожидают своей очереди для прохода.


https://www.roscosmos.ru/30515/



CorvusCorax
Автор сайта
Письмо
Владимир (г. Байконур)
# Дата: 28 Мар 2021 10:10


Хорошо поблизости ЖКХ-шный Беларусь работал. Смешно было наблюдать, как трактор тянул этот гружёный трейлер, со скоростью черепахи. Аж подпрыгивал.:)
Sunspot

В Питере как-то наблюдал картину, как ЖКХ-шный Беларусь перекопал въезд в арку в большой питерский двор (несколько дореволюционных домов, образующих замкнутый прямоугольник) для ремонта то ли трубы, то ли кабеля. Гипотетически там был ещё один въезд с другой стороны двора, но те ворота были давным-давно заварены.
Выбежали автовладельцы и требовали от тракториста срочно зарыть траншею. Не знаю, чем дело кончилось.

Sunspot
Участник
Письмо
Ульяновск
# Дата: 28 Мар 2021 10:17


Контейнеровоз Ever Given — который принадлежит японской компании Shoei Kisen и находится в управлении тайваньской Evergreen Marine Corporation — 23 марта 2021 года сел на мель на 151-м километре Суэцкого канала
CorvusCorax
Причём, хорошо так сел -

Буксиры, буксирами, но сдвинуть такую махину с земли проблематично будет. Как бы разгружать не пришлось...

Morozov_S
Участник
Письмо
Нижний Новгород, За нашу Советскую Родину!
# Дата: 28 Мар 2021 12:05


Sunspot

Интересно, может теперь японцы с бОльшим интересом отнесутся к транспортировке контейнеров в Европу по Транссибу?

CorvusCorax
Автор сайта
Письмо
Владимир (г. Байконур)
# Дата: 28 Мар 2021 15:23


может теперь японцы с бОльшим интересом отнесутся к транспортировке контейнеров в Европу по Транссибу?
Morozov_S

И Япония, и ЮВ Азия. Такие переговоры, по данным СМИ, начнутся в самое ближайшее время.

Sunspot
Участник
Письмо
Ульяновск
# Дата: 29 Мар 2021 09:54


Вроде бы сняли - https://www.vesti.ru/article/2543058
Ever Given вывели на фарватер в сторону севера

Sunspot
Участник
Письмо
Ульяновск
# Дата: 29 Мар 2021 10:15


Примерно, что было -

И юмор на тему :) -


<< . 1 . 2 . 3 . >>
Ваш ответ

          Отменить *Что это?

 » Логин  » Пароль 
 
 


Поддержка: miniBB forum software © 2001-2021